Observations for LUTON AIRPORT, United Kingdom (EGGW)

EGGW 180520Z 23007KT 9999 FEW027 14/13 Q1017
EGGW 180450Z AUTO 23006KT 9999 FEW022 14/12 Q1017   
EGGW 180420Z AUTO 23008KT 9999 OVC019 14/12 Q1017   
EGGW 180350Z AUTO 24011KT 9999 SCT012 BKN016 OVC020 14/12 Q1016 
EGGW 180320Z AUTO 26016KT 9999 BKN009 OVC012 14/13 Q1016
EGGW 180250Z AUTO 25012KT 9999 BKN007 OVC023 14/13 Q1016
EGGW 180220Z AUTO 24009KT 210V280 9999 SCT002 BKN006 OVC012 15/14 Q1016 REDZ
EGGW 180150Z AUTO 22005KT 3800 -RA OVC002 15/14 Q1016 REDZ  
EGGW 180120Z AUTO 22008KT 3000 DZ OVC002 15/14 Q1016
EGGW 180050Z AUTO 22007KT 2400 BR OVC001 15/14 Q1016 REDZ   
EGGW 180020Z AUTO 21007KT 2300 BR OVC001 15/14 Q1016
EGGW 172350Z AUTO 22007KT 170V230 3700 BR OVC002 15/14 Q1016
EGGW 172320Z AUTO 22008KT 5000 BR OVC003 15/14 Q1016
EGGW 172250Z AUTO 21008KT 6000 OVC003 14/14 Q1016   
EGGW 172220Z AUTO 21008KT 4900 HZ OVC004 15/14 Q1016
EGGW 172150Z AUTO 21009KT 9999 OVC004 15/13 Q1016   
EGGW 172120Z AUTO 21010KT 9999 OVC005 15/13 Q1016   
EGGW 172050Z AUTO 20009KT 150V220 9999 OVC007 15/13 Q1016   
EGGW 172020Z AUTO 21008KT 170V240 9999 OVC008 15/13 Q1016   
EGGW 171950Z AUTO 20009KT 160V230 9999 OVC008 15/13 Q1016   
EGGW 171920Z AUTO 20008KT 140V230 9999 OVC009 15/13 Q1016   
EGGW 171850Z AUTO 20008KT 160V230 9999 OVC011 15/12 Q1016   
EGGW 171820Z AUTO 21008KT 9999 BKN013 OVC018 15/12 Q1016
EGGW 171750Z AUTO 21010KT 9999 BKN016 16/12 Q1016   
EGGW 171720Z AUTO 22013KT 9999 OVC018 16/12 Q1015   
EGGW 171650Z AUTO 21010KT 160V240 9999 OVC018 16/12 Q1015   
EGGW 171620Z AUTO 22011KT 9999 BKN019 OVC024 17/12 Q1015
EGGW 171550Z AUTO 22012KT 9999 BKN021 OVC027 16/11 Q1016
EGGW 171520Z AUTO 22011KT 180V250 9999 BKN024 OVC029 17/11 Q1016
EGGW 171450Z AUTO 22011KT 190V250 9999 BKN025 OVC033 17/11 Q1016
EGGW 171420Z AUTO 23013KT 9999 BKN026 BKN032 17/11 Q1016
EGGW 171350Z AUTO 21011KT 9999 OVC026 17/10 Q1016   
EGGW 171320Z AUTO 23011KT 9999 OVC031 17/10 Q1016   
EGGW 171250Z AUTO 24009KT 9999 OVC030 17/10 Q1016   
EGGW 171220Z AUTO 24012KT 9999 BKN030 OVC040 17/10 Q1016
EGGW 171150Z AUTO 24012KT 9999 BKN028 BKN040 17/10 Q1016
EGGW 171120Z AUTO 23011KT 9999 FEW030 SCT037 BKN049 17/11 Q1016 
EGGW 171050Z AUTO 24012KT 9999 SCT023 BKN033 BKN047 17/11 Q1016 
EGGW 171020Z AUTO 23010KT 200V270 9999 SCT022 BKN044 16/11 Q1016
EGGW 170950Z AUTO 24009KT 9999 BKN018 BKN025 15/11 Q1016
EGGW 170920Z AUTO 24011KT 9999 BKN014 15/12 Q1016   
EGGW 170850Z AUTO 24009KT 9999 BKN011 14/12 Q1016   
EGGW 170820Z AUTO 23010KT 9999 BKN010 14/12 Q1016   
EGGW 170750Z AUTO 24008KT 9999 -RA BKN010 BKN015 OVC034 13/12 Q1016 
EGGW 170720Z AUTO 24009KT 9999 -RA SCT019/// BKN027/// BKN035/// //////TCU 13/12 Q1016  
EGGW 170650Z AUTO 24008KT 9999 -RA BKN031/// //////TCU 13/11 Q1016  
EGGW 170620Z AUTO 24007KT 210V270 9999 -RA BKN014 BKN034 13/11 Q1015
EGGW 170550Z AUTO 20004KT 160V230 9999 -RA BKN013 13/10 Q1015   
EGGW 170520Z AUTO 23006KT 9999 NCD 13/10 Q1015  
EGGW 170450Z AUTO 23008KT 9999 NCD 13/10 Q1014